Time;durP1;ratioP1;P1;durP2;ratioP2;P2;SDS_P1;SDS_P2;PMS_P1;PMS_P2;Temp;Humidity;BMP_temperature;BMP_pressure;BME280_temperature;BME280_humidity;BME280_pressure;Samples;Min_cycle;Max_cycle;Signal;HPM_P1;HPM_P2
2021/05/01 00:01:30;;;;;;;27.47;17.13;;;;;;;;;;5059042;28;46911;-80
2021/05/01 00:03:57;;;;;;;24.53;16.03;;;;;;;;;;5074101;28;39459;-80
2021/05/01 00:06:23;;;;;;;26.97;15.37;;;;;;;;;;5067871;28;37949;-80
2021/05/01 00:08:50;;;;;;;17.43;11.90;;;;;;;;;;5067840;28;39018;-80
2021/05/01 00:11:18;;;;;;;21.57;14.63;;;;;;;;;;5062026;28;36127;-79
2021/05/01 00:13:45;;;;;;;23.53;16.10;;;;;;;;;;5087388;28;39156;-80
2021/05/01 00:16:11;;;;;;;24.33;16.93;;;;;;;;;;5076445;28;38781;-80
2021/05/01 00:18:38;;;;;;;23.97;16.83;;;;;;;;;;5077380;28;38660;-79
2021/05/01 00:21:05;;;;;;;29.93;19.40;;;;;;;;;;5055275;28;37886;-79
2021/05/01 00:23:32;;;;;;;24.33;17.80;;;;;;;;;;5075146;28;40968;-80
2021/05/01 00:25:59;;;;;;;22.47;18.03;;;;;;;;;;5074290;28;36781;-79
2021/05/01 00:28:26;;;;;;;23.63;15.73;;;;;;;;;;5054135;28;38383;-79
2021/05/01 00:30:52;;;;;;;28.13;17.47;;;;;;;;;;5087578;28;37579;-80
2021/05/01 00:33:19;;;;;;;28.30;18.93;;;;;;;;;;5060084;28;39532;-79
2021/05/01 00:35:45;;;;;;;26.47;17.67;;;;;;;;;;5077407;28;38261;-80
2021/05/01 00:38:12;;;;;;;29.33;20.67;;;;;;;;;;5083183;28;38041;-79
2021/05/01 00:40:38;;;;;;;19.80;13.93;;;;;;;;;;5086557;28;36648;-79
2021/05/01 00:43:05;;;;;;;26.10;17.17;;;;;;;;;;5078703;28;39003;-80
2021/05/01 00:45:31;;;;;;;22.90;16.40;;;;;;;;;;5081679;28;38159;-79
2021/05/01 00:47:58;;;;;;;21.07;14.67;;;;;;;;;;5056847;28;38382;-80
2021/05/01 00:50:24;;;;;;;33.20;21.53;;;;;;;;;;5063520;28;36941;-80
2021/05/01 00:52:51;;;;;;;28.60;18.67;;;;;;;;;;5080591;28;37302;-79
2021/05/01 00:55:17;;;;;;;22.50;16.87;;;;;;;;;;5062162;28;39083;-80
2021/05/01 00:57:43;;;;;;;29.97;20.13;;;;;;;;;;5083531;28;39142;-80
2021/05/01 01:02:52;;;;;;;22.38;16.88;;;;;;;;;;5097349;28;39169;-79
2021/05/01 01:05:19;;;;;;;27.03;19.37;;;;;;;;;;5070981;28;39233;-80
2021/05/01 01:07:45;;;;;;;29.50;17.23;;;;;;;;;;5081097;28;38219;-79
2021/05/01 01:10:11;;;;;;;30.63;19.80;;;;;;;;;;5074091;28;37926;-79
2021/05/01 01:12:38;;;;;;;30.57;20.53;;;;;;;;;;5056260;28;38724;-80
2021/05/01 01:15:05;;;;;;;24.13;16.60;;;;;;;;;;5069924;28;36357;-79
2021/05/01 01:17:31;;;;;;;20.77;14.17;;;;;;;;;;5060648;28;38151;-79
2021/05/01 01:19:57;;;;;;;27.70;18.13;;;;;;;;;;5069809;28;38911;-79
2021/05/01 01:22:24;;;;;;;30.63;20.43;;;;;;;;;;5082540;28;38673;-78
2021/05/01 01:24:50;;;;;;;32.83;21.33;;;;;;;;;;5066120;28;39386;-79
2021/05/01 01:27:17;;;;;;;27.47;19.63;;;;;;;;;;5081612;28;39575;-79
2021/05/01 01:29:44;;;;;;;23.13;15.17;;;;;;;;;;5061355;28;37149;-80
2021/05/01 01:32:11;;;;;;;26.07;20.17;;;;;;;;;;5077521;28;38773;-79
2021/05/01 01:34:41;;;;;;;36.57;19.07;;;;;;;;;;5052366;28;38505;-79
2021/05/01 01:37:07;;;;;;;24.07;17.90;;;;;;;;;;5057579;28;38219;-79
2021/05/01 01:39:33;;;;;;;33.53;18.97;;;;;;;;;;5059244;28;37223;-79
2021/05/01 01:42:00;;;;;;;30.37;18.87;;;;;;;;;;5081850;28;39782;-80
2021/05/01 01:44:26;;;;;;;25.00;17.23;;;;;;;;;;5081680;28;40190;-79
2021/05/01 01:46:52;;;;;;;29.67;18.57;;;;;;;;;;5075774;28;38309;-79
2021/05/01 01:49:19;;;;;;;24.57;16.63;;;;;;;;;;5081058;28;36479;-79
2021/05/01 01:51:45;;;;;;;30.97;20.33;;;;;;;;;;5081576;28;37100;-80
2021/05/01 01:54:12;;;;;;;22.50;13.87;;;;;;;;;;5064257;28;37088;-81
2021/05/01 01:56:38;;;;;;;24.73;18.17;;;;;;;;;;5050921;28;39210;-78
2021/05/01 01:59:05;;;;;;;38.13;22.97;;;;;;;;;;5072486;28;36875;-79
2021/05/01 02:01:33;;;;;;;31.10;20.80;;;;;;;;;;5073634;28;38563;-79
2021/05/01 02:03:59;;;;;;;35.13;20.17;;;;;;;;;;5076931;28;38140;-79
2021/05/01 02:06:25;;;;;;;32.90;20.57;;;;;;;;;;5070632;28;37809;-79
2021/05/01 02:08:52;;;;;;;31.90;21.10;;;;;;;;;;5075396;28;35446;-79
2021/05/01 02:11:19;;;;;;;26.87;17.23;;;;;;;;;;5057047;28;39104;-79
2021/05/01 02:13:45;;;;;;;23.27;15.93;;;;;;;;;;5058417;28;37935;-80
2021/05/01 02:16:12;;;;;;;23.17;17.10;;;;;;;;;;5056912;28;37132;-79
2021/05/01 02:18:38;;;;;;;17.80;14.17;;;;;;;;;;5061660;28;38088;-80
2021/05/01 02:21:05;;;;;;;20.90;15.43;;;;;;;;;;5061202;28;39352;-79
2021/05/01 02:23:32;;;;;;;23.57;17.00;;;;;;;;;;5062035;28;37403;-79
2021/05/01 02:25:58;;;;;;;20.33;16.23;;;;;;;;;;5065563;28;40338;-80
2021/05/01 02:28:24;;;;;;;33.80;20.23;;;;;;;;;;5061408;28;35836;-78
2021/05/01 02:30:51;;;;;;;29.00;20.37;;;;;;;;;;5074724;28;39576;-79
2021/05/01 02:33:17;;;;;;;34.87;22.67;;;;;;;;;;5081956;28;39224;-80
2021/05/01 02:35:44;;;;;;;28.37;20.97;;;;;;;;;;5064735;28;38613;-80
2021/05/01 02:38:10;;;;;;;33.90;22.27;;;;;;;;;;5065455;28;38831;-79
2021/05/01 02:40:37;;;;;;;35.83;23.93;;;;;;;;;;5072256;28;39571;-79
2021/05/01 02:43:05;;;;;;;28.67;18.60;;;;;;;;;;5086183;28;38590;-79
2021/05/01 02:45:31;;;;;;;39.53;24.03;;;;;;;;;;5090807;28;38757;-79
2021/05/01 02:47:58;;;;;;;29.20;17.77;;;;;;;;;;5063784;28;37488;-80
2021/05/01 02:50:24;;;;;;;37.93;22.03;;;;;;;;;;5083486;28;38495;-79
2021/05/01 02:52:51;;;;;;;26.30;15.87;;;;;;;;;;5078996;28;38821;-79
2021/05/01 02:55:17;;;;;;;39.57;20.97;;;;;;;;;;5080235;28;39518;-80
2021/05/01 02:57:44;;;;;;;34.63;21.53;;;;;;;;;;5082167;28;35113;-80
2021/05/01 03:00:12;;;;;;;35.30;22.17;;;;;;;;;;5081358;28;39831;-80
2021/05/01 03:02:38;;;;;;;33.60;20.73;;;;;;;;;;5066211;28;38645;-80
2021/05/01 03:05:06;;;;;;;35.33;20.47;;;;;;;;;;5087111;28;38185;-80
2021/05/01 03:07:32;;;;;;;28.57;16.77;;;;;;;;;;5068226;28;37834;-80
2021/05/01 03:09:58;;;;;;;32.47;19.23;;;;;;;;;;5080668;28;39179;-80
2021/05/01 03:12:25;;;;;;;30.53;19.90;;;;;;;;;;5074894;28;39286;-81
2021/05/01 03:14:51;;;;;;;27.53;18.60;;;;;;;;;;5099701;28;38800;-81
2021/05/01 03:17:21;;;;;;;27.87;17.90;;;;;;;;;;5105042;28;37123;-81
2021/05/01 03:19:49;;;;;;;26.73;16.87;;;;;;;;;;5079386;28;38455;-81
2021/05/01 03:22:15;;;;;;;28.37;20.03;;;;;;;;;;5085215;28;39031;-80
2021/05/01 03:24:42;;;;;;;23.03;16.33;;;;;;;;;;5081748;28;39092;-80
2021/05/01 03:27:08;;;;;;;28.47;18.37;;;;;;;;;;5082144;28;36351;-81
2021/05/01 03:29:35;;;;;;;31.33;20.20;;;;;;;;;;5094092;28;39400;-81
2021/05/01 03:32:01;;;;;;;23.93;15.60;;;;;;;;;;5093928;28;39274;-80
2021/05/01 03:34:28;;;;;;;21.93;14.17;;;;;;;;;;5086185;28;47228;-80
2021/05/01 03:36:54;;;;;;;22.00;13.30;;;;;;;;;;5068101;28;38624;-80
2021/05/01 03:39:20;;;;;;;28.23;13.70;;;;;;;;;;5068605;28;39146;-80
2021/05/01 03:41:48;;;;;;;27.27;13.17;;;;;;;;;;5071526;28;37838;-80
2021/05/01 03:44:14;;;;;;;18.40;11.43;;;;;;;;;;5089126;28;38174;-79
2021/05/01 03:46:40;;;;;;;13.87;8.53;;;;;;;;;;5066130;28;37571;-81
2021/05/01 03:49:07;;;;;;;15.37;9.93;;;;;;;;;;5087428;28;38881;-80
2021/05/01 03:51:33;;;;;;;15.33;9.83;;;;;;;;;;5083553;28;39905;-80
2021/05/01 03:54:00;;;;;;;16.80;9.87;;;;;;;;;;5083047;28;38283;-80
2021/05/01 03:56:26;;;;;;;18.80;10.97;;;;;;;;;;5065916;28;36086;-81
2021/05/01 03:58:53;;;;;;;17.03;10.07;;;;;;;;;;5083975;28;39023;-80
2021/05/01 04:01:19;;;;;;;15.27;9.40;;;;;;;;;;5068342;28;39219;-79
2021/05/01 04:03:46;;;;;;;18.40;9.80;;;;;;;;;;5092409;28;38536;-80
2021/05/01 04:06:12;;;;;;;20.73;10.97;;;;;;;;;;5068673;28;35675;-80
2021/05/01 04:08:38;;;;;;;18.60;11.33;;;;;;;;;;5087449;28;37849;-80
2021/05/01 04:11:05;;;;;;;18.60;10.13;;;;;;;;;;5062102;28;39416;-79
2021/05/01 04:13:32;;;;;;;16.93;11.07;;;;;;;;;;5063900;28;40877;-79
2021/05/01 04:15:58;;;;;;;16.77;11.07;;;;;;;;;;5084378;28;37742;-79
2021/05/01 04:18:32;;;;;;;16.70;9.90;;;;;;;;;;5103310;28;39734;-81
2021/05/01 04:20:58;;;;;;;21.90;12.50;;;;;;;;;;5112325;27;37479;-80
2021/05/01 04:23:25;;;;;;;17.83;11.57;;;;;;;;;;5095310;28;37156;-81
2021/05/01 04:25:51;;;;;;;22.70;9.87;;;;;;;;;;5103869;28;37492;-80
2021/05/01 04:28:18;;;;;;;23.67;11.20;;;;;;;;;;5097698;28;39126;-80
2021/05/01 04:30:44;;;;;;;16.70;9.83;;;;;;;;;;5078512;28;39239;-80
2021/05/01 04:33:10;;;;;;;16.53;10.10;;;;;;;;;;5103237;28;38418;-81
2021/05/01 04:35:37;;;;;;;17.10;11.33;;;;;;;;;;5095467;28;38320;-79
2021/05/01 04:38:03;;;;;;;21.07;11.30;;;;;;;;;;5072896;28;39542;-80
2021/05/01 04:40:29;;;;;;;19.23;10.90;;;;;;;;;;5094399;28;40081;-80
2021/05/01 04:43:00;;;;;;;16.93;12.53;;;;;;;;;;5084766;28;36915;-81
2021/05/01 04:45:26;;;;;;;18.60;11.63;;;;;;;;;;5065320;28;38097;-80
2021/05/01 04:47:53;;;;;;;20.43;13.17;;;;;;;;;;5082862;28;39552;-80
2021/05/01 04:50:20;;;;;;;17.33;12.30;;;;;;;;;;5065000;28;39199;-80
2021/05/01 04:52:46;;;;;;;18.13;12.00;;;;;;;;;;5070240;28;38196;-80
2021/05/01 04:55:13;;;;;;;19.03;11.43;;;;;;;;;;5068136;28;36041;-80
2021/05/01 04:57:44;;;;;;;22.83;14.03;;;;;;;;;;5065408;28;39506;-80
2021/05/01 05:00:11;;;;;;;18.30;14.30;;;;;;;;;;5066362;28;39303;-79
2021/05/01 05:02:38;;;;;;;15.80;10.73;;;;;;;;;;5071024;28;38817;-80
2021/05/01 05:05:05;;;;;;;16.27;10.77;;;;;;;;;;5061907;28;37897;-79
2021/05/01 05:07:32;;;;;;;22.60;11.60;;;;;;;;;;5064832;28;40621;-80
2021/05/01 05:09:58;;;;;;;19.70;12.57;;;;;;;;;;5093100;28;38788;-80
2021/05/01 05:12:25;;;;;;;14.73;9.87;;;;;;;;;;5064364;28;39050;-80
2021/05/01 05:14:51;;;;;;;19.00;12.33;;;;;;;;;;5084926;28;37761;-80
2021/05/01 05:17:18;;;;;;;18.37;10.50;;;;;;;;;;5071755;28;39754;-80
2021/05/01 05:19:45;;;;;;;19.53;13.73;;;;;;;;;;5084509;28;40461;-80
2021/05/01 05:22:11;;;;;;;15.20;11.10;;;;;;;;;;5068795;28;38074;-80
2021/05/01 05:24:38;;;;;;;17.67;9.70;;;;;;;;;;5064468;28;37497;-79
2021/05/01 05:27:05;;;;;;;14.13;8.37;;;;;;;;;;5063060;28;40629;-79
2021/05/01 05:29:32;;;;;;;14.23;7.93;;;;;;;;;;5066767;28;37339;-79
2021/05/01 05:31:59;;;;;;;16.10;8.03;;;;;;;;;;5082686;28;38431;-80
2021/05/01 05:34:25;;;;;;;11.97;9.00;;;;;;;;;;5067546;28;38748;-79
2021/05/01 05:36:51;;;;;;;11.67;7.80;;;;;;;;;;5055714;28;40577;-78
2021/05/01 05:39:18;;;;;;;14.47;8.70;;;;;;;;;;5052906;28;39133;-79
2021/05/01 05:41:44;;;;;;;10.13;7.27;;;;;;;;;;5071123;28;37912;-79
2021/05/01 05:44:11;;;;;;;12.23;8.40;;;;;;;;;;5069718;28;36906;-79
2021/05/01 05:46:38;;;;;;;15.93;8.10;;;;;;;;;;5054209;28;38884;-80
2021/05/01 05:49:05;;;;;;;12.20;7.20;;;;;;;;;;5070780;28;39122;-79
2021/05/01 05:51:31;;;;;;;14.43;6.77;;;;;;;;;;5052797;28;38122;-80
2021/05/01 05:53:58;;;;;;;8.77;6.97;;;;;;;;;;5062917;28;36818;-80
2021/05/01 05:56:25;;;;;;;12.10;6.80;;;;;;;;;;5065204;28;39556;-79
2021/05/01 05:58:51;;;;;;;13.33;5.80;;;;;;;;;;5073002;28;38525;-79
2021/05/01 06:01:17;;;;;;;11.50;6.27;;;;;;;;;;5078359;28;39845;-80
2021/05/01 06:03:47;;;;;;;8.30;5.97;;;;;;;;;;5076747;28;37216;-79
2021/05/01 06:06:17;;;;;;;8.07;5.33;;;;;;;;;;5073046;28;40984;-79
2021/05/01 06:08:43;;;;;;;13.73;6.27;;;;;;;;;;5052102;28;38970;-80
2021/05/01 06:11:11;;;;;;;13.90;5.80;;;;;;;;;;5080137;28;38972;-79
2021/05/01 06:13:38;;;;;;;9.40;5.70;;;;;;;;;;5067370;28;37650;-79
2021/05/01 06:16:05;;;;;;;12.60;5.47;;;;;;;;;;5070651;28;37403;-79
2021/05/01 06:18:36;;;;;;;15.20;6.57;;;;;;;;;;5054569;28;38728;-80
2021/05/01 06:21:02;;;;;;;9.57;5.00;;;;;;;;;;5061308;28;38472;-80
2021/05/01 06:23:29;;;;;;;8.93;5.00;;;;;;;;;;5086315;28;48935;-80
2021/05/01 06:25:55;;;;;;;11.83;4.97;;;;;;;;;;5079464;28;38453;-81
2021/05/01 06:28:22;;;;;;;9.67;5.37;;;;;;;;;;5063062;28;39610;-80
2021/05/01 06:30:48;;;;;;;9.73;5.13;;;;;;;;;;5086574;28;38471;-80
2021/05/01 06:33:15;;;;;;;10.37;5.47;;;;;;;;;;5073244;28;38092;-80
2021/05/01 06:35:43;;;;;;;9.90;5.00;;;;;;;;;;5081777;28;38435;-80
2021/05/01 06:38:10;;;;;;;10.33;4.97;;;;;;;;;;5081321;28;37437;-81
2021/05/01 06:40:42;;;;;;;6.63;4.73;;;;;;;;;;5081140;28;36839;-80
2021/05/01 06:43:14;;;;;;;11.38;4.50;;;;;;;;;;5082980;28;36602;-80
2021/05/01 06:45:41;;;;;;;9.00;4.70;;;;;;;;;;5085602;28;38882;-81
2021/05/01 06:48:15;;;;;;;11.23;5.57;;;;;;;;;;5084514;28;37594;-80
2021/05/01 06:50:43;;;;;;;7.43;4.60;;;;;;;;;;5083785;28;38138;-81
2021/05/01 06:53:09;;;;;;;11.73;5.10;;;;;;;;;;5080781;28;35077;-80
2021/05/01 06:55:35;;;;;;;11.60;5.00;;;;;;;;;;5069671;28;38124;-79
2021/05/01 06:58:04;;;;;;;11.13;5.40;;;;;;;;;;5066871;28;39029;-79
2021/05/01 07:00:30;;;;;;;8.67;5.90;;;;;;;;;;5083736;28;37751;-79
2021/05/01 07:03:04;;;;;;;15.13;5.50;;;;;;;;;;5078925;28;35594;-77
2021/05/01 07:05:31;;;;;;;12.10;5.10;;;;;;;;;;5063061;28;47140;-79
2021/05/01 07:07:57;;;;;;;13.03;5.00;;;;;;;;;;5082133;28;38562;-78
2021/05/01 07:10:24;;;;;;;9.60;4.93;;;;;;;;;;5067617;28;38155;-79
2021/05/01 07:12:51;;;;;;;11.43;4.45;;;;;;;;;;5084026;28;34895;-78
2021/05/01 07:15:18;;;;;;;11.05;4.82;;;;;;;;;;5064874;28;38305;-78
2021/05/01 07:17:46;;;;;;;9.13;4.10;;;;;;;;;;5076772;28;38535;-77
2021/05/01 07:20:13;;;;;;;9.05;4.63;;;;;;;;;;5060731;28;39724;-78
2021/05/01 07:22:41;;;;;;;10.18;4.57;;;;;;;;;;5079962;28;36964;-77
2021/05/01 07:25:08;;;;;;;9.25;4.50;;;;;;;;;;5078736;28;40117;-78
2021/05/01 07:27:47;;;;;;;10.68;4.80;;;;;;;;;;5082572;28;38351;-77
2021/05/01 07:30:14;;;;;;;8.45;3.63;;;;;;;;;;5059235;28;38708;-78
2021/05/01 07:32:41;;;;;;;8.88;3.83;;;;;;;;;;5076245;28;36747;-78
2021/05/01 07:35:08;;;;;;;8.02;3.80;;;;;;;;;;5075397;28;38900;-78
2021/05/01 07:37:37;;;;;;;6.82;3.67;;;;;;;;;;5063459;28;39263;-77
2021/05/01 07:40:05;;;;;;;7.00;3.55;;;;;;;;;;5079674;28;38197;-78
2021/05/01 07:42:38;;;;;;;6.68;3.28;;;;;;;;;;5061275;28;38605;-78
2021/05/01 07:45:04;;;;;;;;;;;;;;;;;;5081199;28;39482;-78
2021/05/01 07:47:32;;;;;;;8.90;3.83;;;;;;;;;;5059514;28;40194;-78
2021/05/01 07:49:59;;;;;;;7.18;3.50;;;;;;;;;;5088881;28;38365;-78
2021/05/01 07:52:30;;;;;;;9.02;3.70;;;;;;;;;;5051762;28;37410;-78
2021/05/01 07:54:57;;;;;;;5.05;3.70;;;;;;;;;;5050646;28;38564;-78
2021/05/01 07:57:23;;;;;;;9.13;4.07;;;;;;;;;;5050001;28;38999;-78
2021/05/01 07:59:49;;;;;;;7.53;4.07;;;;;;;;;;5067725;28;38992;-78
2021/05/01 08:02:16;;;;;;;8.93;4.07;;;;;;;;;;5049676;28;37321;-78
2021/05/01 08:04:43;;;;;;;9.07;3.88;;;;;;;;;;5066173;28;37944;-79
2021/05/01 08:07:09;;;;;;;7.07;3.90;;;;;;;;;;5083696;28;38427;-78
2021/05/01 08:09:35;;;;;;;7.03;3.70;;;;;;;;;;5068254;28;37213;-78
2021/05/01 08:12:02;;;;;;;6.63;3.60;;;;;;;;;;5068356;28;37068;-77
2021/05/01 08:14:28;;;;;;;5.95;3.10;;;;;;;;;;5068223;28;37909;-78
2021/05/01 08:16:55;;;;;;;6.75;3.28;;;;;;;;;;5070386;28;37152;-79
2021/05/01 08:19:21;;;;;;;4.90;3.58;;;;;;;;;;5068347;28;39913;-78
2021/05/01 08:21:47;;;;;;;10.15;3.20;;;;;;;;;;5088697;28;36691;-78
2021/05/01 08:24:14;;;;;;;6.78;3.20;;;;;;;;;;5069987;28;39522;-78
2021/05/01 08:26:40;;;;;;;5.00;2.83;;;;;;;;;;5088056;28;38139;-78
2021/05/01 08:29:07;;;;;;;6.05;2.75;;;;;;;;;;5070880;28;39968;-77
2021/05/01 08:31:33;;;;;;;6.68;2.55;;;;;;;;;;5088767;28;37083;-78
2021/05/01 08:33:59;;;;;;;5.68;3.08;;;;;;;;;;5087429;28;38714;-77
2021/05/01 08:36:26;;;;;;;8.93;3.28;;;;;;;;;;5088278;28;39312;-78
2021/05/01 08:38:53;;;;;;;11.20;4.32;;;;;;;;;;5087363;28;38578;-78
2021/05/01 08:41:21;;;;;;;13.43;4.18;;;;;;;;;;5073676;28;37881;-78
2021/05/01 08:43:47;;;;;;;9.55;4.32;;;;;;;;;;5087197;28;38752;-78
2021/05/01 08:46:14;;;;;;;9.13;4.13;;;;;;;;;;5087724;28;38408;-77
2021/05/01 08:48:44;;;;;;;9.68;3.78;;;;;;;;;;5087643;28;38007;-78
2021/05/01 08:51:11;;;;;;;7.25;3.88;;;;;;;;;;5088043;28;37168;-78
2021/05/01 08:53:38;;;;;;;11.60;3.88;;;;;;;;;;5068365;28;37723;-78
2021/05/01 08:56:05;;;;;;;8.35;3.97;;;;;;;;;;5086712;28;38389;-77
2021/05/01 08:58:31;;;;;;;8.43;4.78;;;;;;;;;;5069762;28;40085;-78
2021/05/01 09:00:58;;;;;;;7.47;4.32;;;;;;;;;;5067403;28;37907;-78
2021/05/01 09:03:25;;;;;;;6.10;3.50;;;;;;;;;;5082441;28;39695;-77
2021/05/01 09:05:52;;;;;;;8.20;3.85;;;;;;;;;;5068548;28;37171;-78
2021/05/01 09:08:20;;;;;;;9.05;3.15;;;;;;;;;;5068274;28;37133;-78
2021/05/01 09:10:47;;;;;;;7.18;3.03;;;;;;;;;;5069566;28;37681;-78
2021/05/01 09:13:24;;;;;;;4.00;2.58;;;;;;;;;;5068386;28;39573;-78
2021/05/01 09:15:57;;;;;;;10.45;2.78;;;;;;;;;;5067696;28;38960;-78
2021/05/01 09:18:24;;;;;;;6.85;3.10;;;;;;;;;;5088281;28;38183;-78
2021/05/01 09:20:51;;;;;;;6.22;4.03;;;;;;;;;;5087887;28;37247;-78
2021/05/01 09:23:17;;;;;;;6.63;3.05;;;;;;;;;;5070944;28;39202;-78
2021/05/01 09:26:00;;;;;;;7.85;3.17;;;;;;;;;;5068952;28;39362;-78
2021/05/01 09:28:38;;;;;;;8.02;2.70;;;;;;;;;;5049626;28;39601;-78
2021/05/01 09:31:14;;;;;;;8.57;3.28;;;;;;;;;;5067735;28;36816;-78
2021/05/01 09:33:44;;;;;;;6.53;3.10;;;;;;;;;;5080321;28;39229;-78
2021/05/01 09:36:17;;;;;;;5.85;2.38;;;;;;;;;;5065569;28;38644;-79
2021/05/01 09:38:45;;;;;;;7.55;2.88;;;;;;;;;;5069927;28;39297;-79
2021/05/01 09:41:16;;;;;;;5.88;3.20;;;;;;;;;;5066490;28;37183;-79
2021/05/01 09:43:55;;;;;;;6.28;2.80;;;;;;;;;;5070676;28;38530;-79
2021/05/01 09:46:22;;;;;;;4.63;2.83;;;;;;;;;;5070319;28;38745;-79
2021/05/01 09:49:02;;;;;;;6.72;3.13;;;;;;;;;;5071166;28;37510;-79
2021/05/01 09:51:33;;;;;;;7.22;3.28;;;;;;;;;;5088179;28;48801;-79
2021/05/01 09:54:00;;;;;;;6.10;3.17;;;;;;;;;;5088937;28;39601;-79
2021/05/01 09:56:28;;;;;;;6.50;3.55;;;;;;;;;;5088422;28;39325;-79
2021/05/01 09:58:54;;;;;;;11.98;4.50;;;;;;;;;;5087265;28;38566;-79
2021/05/01 10:01:21;;;;;;;10.20;5.15;;;;;;;;;;5068780;28;37321;-79
2021/05/01 10:03:47;;;;;;;6.57;3.90;;;;;;;;;;5069000;28;40911;-78
2021/05/01 10:06:18;;;;;;;6.60;3.88;;;;;;;;;;5072949;28;40155;-77
2021/05/01 10:08:52;;;;;;;5.05;2.72;;;;;;;;;;5091593;28;38135;-78
2021/05/01 10:11:22;;;;;;;10.07;3.67;;;;;;;;;;5073008;28;37338;-78
2021/05/01 10:13:48;;;;;;;9.57;3.42;;;;;;;;;;5091870;28;39797;-80
2021/05/01 10:16:15;;;;;;;6.45;3.10;;;;;;;;;;5072770;28;39246;-78
2021/05/01 10:19:00;;;;;;;7.57;3.58;;;;;;;;;;5072555;28;38458;-78
2021/05/01 10:21:26;;;;;;;6.95;3.65;;;;;;;;;;5091698;28;37218;-77
2021/05/01 10:23:53;;;;;;;5.47;3.28;;;;;;;;;;5072560;28;39486;-80
2021/05/01 10:26:19;;;;;;;5.72;3.53;;;;;;;;;;5071685;28;39223;-78
2021/05/01 10:28:48;;;;;;;9.43;2.92;;;;;;;;;;5091350;28;38460;-78
2021/05/01 10:31:18;;;;;;;5.35;2.90;;;;;;;;;;5092132;28;36898;-78
2021/05/01 10:33:45;;;;;;;6.55;2.97;;;;;;;;;;5091050;28;40074;-78
2021/05/01 10:36:22;;;;;;;10.70;3.10;;;;;;;;;;5071857;28;39076;-78
2021/05/01 10:39:02;;;;;;;6.70;3.20;;;;;;;;;;5072444;28;38786;-80
2021/05/01 10:41:31;;;;;;;7.05;3.15;;;;;;;;;;5063274;28;47064;-77
2021/05/01 10:43:58;;;;;;;5.15;2.80;;;;;;;;;;5071683;28;40068;-77
2021/05/01 10:46:29;;;;;;;7.05;2.92;;;;;;;;;;5071910;28;39707;-79
2021/05/01 10:48:57;;;;;;;4.50;2.70;;;;;;;;;;5071066;28;39078;-78
2021/05/01 10:51:28;;;;;;;6.53;2.95;;;;;;;;;;5091245;28;37144;-78
2021/05/01 10:54:15;;;;;;;7.25;2.40;;;;;;;;;;5071979;28;39057;-79
2021/05/01 10:56:46;;;;;;;5.78;2.60;;;;;;;;;;5089612;28;48987;-78
2021/05/01 10:59:13;;;;;;;6.82;3.30;;;;;;;;;;5067289;28;39619;-78
2021/05/01 11:01:47;;;;;;;8.15;2.92;;;;;;;;;;5051244;28;37440;-79
2021/05/01 11:04:21;;;;;;;3.38;2.58;;;;;;;;;;5071533;28;38750;-79
2021/05/01 11:07:06;;;;;;;3.38;2.00;;;;;;;;;;5070087;28;38584;-78
2021/05/01 11:09:43;;;;;;;5.13;2.38;;;;;;;;;;5052670;28;47331;-79
2021/05/01 11:12:16;;;;;;;5.90;2.40;;;;;;;;;;5071942;28;37658;-79
2021/05/01 11:14:52;;;;;;;5.38;2.85;;;;;;;;;;5075280;28;40632;-79
2021/05/01 11:17:31;;;;;;;5.50;3.17;;;;;;;;;;5089593;28;38682;-79
2021/05/01 11:20:03;;;;;;;7.50;3.20;;;;;;;;;;5089286;28;37966;-79
2021/05/01 11:22:32;;;;;;;6.22;3.17;;;;;;;;;;5060984;28;47176;-79
2021/05/01 11:24:58;;;;;;;6.85;3.92;;;;;;;;;;5070554;28;39707;-79
2021/05/01 11:27:25;;;;;;;4.47;2.65;;;;;;;;;;5070691;28;38064;-79
2021/05/01 11:29:52;;;;;;;7.63;3.38;;;;;;;;;;5070094;28;38926;-79
2021/05/01 11:32:19;;;;;;;4.90;2.90;;;;;;;;;;5078190;28;37596;-78
2021/05/01 11:34:47;;;;;;;10.05;3.45;;;;;;;;;;5071660;28;39149;-79
2021/05/01 11:37:13;;;;;;;4.47;2.72;;;;;;;;;;5070608;28;38728;-78
2021/05/01 11:39:41;;;;;;;4.03;2.65;;;;;;;;;;5090613;28;38331;-78
2021/05/01 11:42:07;;;;;;;7.45;3.00;;;;;;;;;;5072053;28;37588;-78
2021/05/01 11:44:34;;;;;;;2.85;2.28;;;;;;;;;;5071559;28;37675;-79
2021/05/01 11:47:07;;;;;;;4.40;2.53;;;;;;;;;;5090177;28;38261;-78
2021/05/01 11:49:34;;;;;;;5.78;2.30;;;;;;;;;;5067970;28;47408;-78
2021/05/01 11:52:25;;;;;;;3.35;1.88;;;;;;;;;;5051571;28;36996;-78
2021/05/01 11:55:10;;;;;;;2.20;1.73;;;;;;;;;;5070562;28;48631;-79
2021/05/01 11:57:49;;;;;;;2.42;1.98;;;;;;;;;;5052655;28;47127;-79
2021/05/01 12:00:28;;;;;;;3.53;1.95;;;;;;;;;;5053169;28;38715;-79
2021/05/01 12:02:56;;;;;;;5.38;1.90;;;;;;;;;;5053102;28;37766;-79
2021/05/01 12:05:23;;;;;;;5.00;2.03;;;;;;;;;;5052825;28;37817;-79
2021/05/01 12:08:02;;;;;;;3.00;1.98;;;;;;;;;;5053975;28;38388;-79
2021/05/01 12:10:32;;;;;;;6.97;2.38;;;;;;;;;;5070798;28;47877;-80
2021/05/01 12:13:00;;;;;;;3.17;2.22;;;;;;;;;;5069725;28;37362;-78
2021/05/01 12:15:31;;;;;;;3.90;1.90;;;;;;;;;;5071095;28;39676;-79
2021/05/01 12:17:57;;;;;;;4.25;2.33;;;;;;;;;;5072598;28;39583;-78
2021/05/01 12:20:26;;;;;;;9.95;2.03;;;;;;;;;;5070823;28;38061;-80
2021/05/01 12:22:52;;;;;;;4.90;2.30;;;;;;;;;;5059252;28;38903;-79
2021/05/01 12:25:31;;;;;;;4.85;2.20;;;;;;;;;;5051990;28;39110;-79
2021/05/01 12:27:58;;;;;;;2.55;1.95;;;;;;;;;;5071364;28;39241;-79
2021/05/01 12:30:36;;;;;;;4.75;2.65;;;;;;;;;;5053320;28;38609;-79
2021/05/01 12:33:22;;;;;;;6.50;2.17;;;;;;;;;;5052777;28;37552;-79
2021/05/01 12:35:52;;;;;;;4.53;2.50;;;;;;;;;;5053948;28;40247;-80
2021/05/01 12:38:22;;;;;;;7.18;2.80;;;;;;;;;;5054264;28;39252;-79
2021/05/01 12:40:49;;;;;;;3.70;2.35;;;;;;;;;;5083350;28;38622;-79
2021/05/01 12:43:29;;;;;;;5.20;2.80;;;;;;;;;;5074267;28;37354;-79
2021/05/01 12:45:55;;;;;;;5.25;2.30;;;;;;;;;;5073362;28;39853;-79
2021/05/01 12:48:40;;;;;;;6.85;2.40;;;;;;;;;;5090287;28;38265;-79
2021/05/01 12:51:17;;;;;;;6.30;2.58;;;;;;;;;;5072797;28;38683;-78
2021/05/01 12:53:44;;;;;;;5.78;2.50;;;;;;;;;;5091079;28;36580;-79
2021/05/01 12:56:24;;;;;;;5.68;2.25;;;;;;;;;;5092180;28;39176;-79
2021/05/01 12:59:10;;;;;;;3.65;2.30;;;;;;;;;;5072430;28;40184;-79
2021/05/01 13:01:36;;;;;;;3.30;2.05;;;;;;;;;;5072347;28;47452;-79
2021/05/01 13:04:16;;;;;;;8.35;2.13;;;;;;;;;;5071313;28;36627;-79
2021/05/01 13:06:45;;;;;;;5.85;2.50;;;;;;;;;;5070765;28;37772;-79
2021/05/01 13:09:12;;;;;;;5.15;2.10;;;;;;;;;;5088685;28;38960;-80
2021/05/01 13:11:38;;;;;;;6.78;2.60;;;;;;;;;;5072203;28;36655;-79
2021/05/01 13:14:15;;;;;;;2.67;2.42;;;;;;;;;;5090940;28;37382;-79
2021/05/01 13:17:05;;;;;;;4.63;2.60;;;;;;;;;;5089636;28;40129;-79
2021/05/01 13:19:32;;;;;;;5.63;2.70;;;;;;;;;;5074153;28;48982;-79
2021/05/01 13:22:00;;;;;;;4.43;2.80;;;;;;;;;;5070428;28;37782;-80
2021/05/01 13:24:28;;;;;;;6.35;2.55;;;;;;;;;;5090459;28;37040;-80
2021/05/01 13:26:58;;;;;;;7.82;2.97;;;;;;;;;;5072207;28;38051;-79
2021/05/01 13:29:28;;;;;;;3.53;2.88;;;;;;;;;;5090553;28;40307;-79
2021/05/01 13:31:55;;;;;;;6.53;3.38;;;;;;;;;;5071627;28;37072;-80
2021/05/01 13:34:21;;;;;;;7.60;2.70;;;;;;;;;;5071604;28;35800;-80
2021/05/01 13:36:48;;;;;;;7.85;2.72;;;;;;;;;;5071175;28;38124;-79
2021/05/01 13:39:18;;;;;;;6.35;2.53;;;;;;;;;;5096652;28;38151;-80
2021/05/01 13:42:03;;;;;;;4.32;2.65;;;;;;;;;;5081628;28;37337;-79
2021/05/01 13:44:39;;;;;;;6.88;2.83;;;;;;;;;;5097655;28;48776;-80
2021/05/01 13:47:06;;;;;;;4.72;2.40;;;;;;;;;;5098850;28;39567;-80
2021/05/01 13:49:32;;;;;;;8.77;3.00;;;;;;;;;;5100470;28;38607;-80
2021/05/01 13:51:58;;;;;;;6.70;2.80;;;;;;;;;;5080785;28;37327;-80
2021/05/01 13:54:27;;;;;;;4.43;2.92;;;;;;;;;;5080300;28;35928;-79
2021/05/01 13:56:53;;;;;;;5.20;2.47;;;;;;;;;;5096461;28;39475;-80
2021/05/01 13:59:26;;;;;;;5.72;2.50;;;;;;;;;;5094345;28;38265;-79
2021/05/01 14:01:53;;;;;;;5.05;2.80;;;;;;;;;;5077395;28;37367;-80
2021/05/01 14:04:36;;;;;;;3.65;2.90;;;;;;;;;;5095863;28;37002;-79
2021/05/01 14:07:02;;;;;;;;;;;;;;;;;;5097989;28;40035;-79
2021/05/01 14:09:29;;;;;;;3.55;2.67;;;;;;;;;;5099893;28;39095;-80
2021/05/01 14:11:56;;;;;;;7.93;2.55;;;;;;;;;;5077245;28;38454;-80
2021/05/01 14:14:33;;;;;;;5.90;2.00;;;;;;;;;;5096300;28;37217;-80
2021/05/01 14:17:01;;;;;;;3.13;2.38;;;;;;;;;;5075219;28;39490;-79
2021/05/01 14:19:27;;;;;;;4.22;2.17;;;;;;;;;;5075339;28;47304;-79
2021/05/01 14:21:54;;;;;;;4.97;2.05;;;;;;;;;;5067434;28;37167;-79
2021/05/01 14:24:21;;;;;;;4.93;2.67;;;;;;;;;;5053051;28;35842;-79
2021/05/01 14:27:14;;;;;;;6.32;2.70;;;;;;;;;;5052617;28;37792;-79
2021/05/01 14:29:53;;;;;;;3.42;2.40;;;;;;;;;;5066624;28;48738;-79
2021/05/01 14:32:21;;;;;;;5.13;3.10;;;;;;;;;;5067353;28;37313;-79
2021/05/01 14:34:54;;;;;;;3.55;2.30;;;;;;;;;;5074421;28;35824;-80
2021/05/01 14:37:21;;;;;;;2.40;1.83;;;;;;;;;;5071871;28;38611;-79
2021/05/01 14:39:48;;;;;;;2.08;1.75;;;;;;;;;;5072400;28;37327;-79
2021/05/01 14:42:15;;;;;;;2.28;1.83;;;;;;;;;;5091906;28;38044;-79
2021/05/01 14:44:42;;;;;;;4.85;2.40;;;;;;;;;;5072100;28;36074;-80